sensor_id;sensor_type;location;lat;lon;timestamp;P1;durP1;ratioP1;P2;durP2;ratioP2
5195;SDS011;2617;51.006;12.436;2022-10-18T00:02:36;8.90;;;5.10;;
5195;SDS011;2617;51.006;12.436;2022-10-18T00:07:39;7.43;;;5.87;;
5195;SDS011;2617;51.006;12.436;2022-10-18T00:12:42;7.67;;;5.77;;
5195;SDS011;2617;51.006;12.436;2022-10-18T00:17:45;8.07;;;5.73;;
5195;SDS011;2617;51.006;12.436;2022-10-18T00:22:47;10.43;;;6.50;;
5195;SDS011;2617;51.006;12.436;2022-10-18T00:27:49;7.07;;;4.80;;
5195;SDS011;2617;51.006;12.436;2022-10-18T00:32:53;6.35;;;5.15;;
5195;SDS011;2617;51.006;12.436;2022-10-18T00:37:55;10.63;;;5.27;;
5195;SDS011;2617;51.006;12.436;2022-10-18T00:42:58;7.37;;;5.17;;
5195;SDS011;2617;51.006;12.436;2022-10-18T00:48:01;6.13;;;5.10;;
5195;SDS011;2617;51.006;12.436;2022-10-18T00:53:05;10.40;;;6.03;;
5195;SDS011;2617;51.006;12.436;2022-10-18T00:58:07;8.00;;;5.70;;
5195;SDS011;2617;51.006;12.436;2022-10-18T01:03:10;10.43;;;5.60;;
5195;SDS011;2617;51.006;12.436;2022-10-18T01:08:17;9.02;;;5.93;;
5195;SDS011;2617;51.006;12.436;2022-10-18T01:13:45;7.90;;;5.50;;
5195;SDS011;2617;51.006;12.436;2022-10-18T01:19:19;7.60;;;5.93;;
5195;SDS011;2617;51.006;12.436;2022-10-18T01:24:41;9.30;;;7.37;;
5195;SDS011;2617;51.006;12.436;2022-10-18T01:30:03;8.30;;;6.00;;
5195;SDS011;2617;51.006;12.436;2022-10-18T01:35:39;7.80;;;5.50;;
5195;SDS011;2617;51.006;12.436;2022-10-18T01:40:40;11.73;;;6.43;;
5195;SDS011;2617;51.006;12.436;2022-10-18T01:45:42;7.93;;;5.73;;
5195;SDS011;2617;51.006;12.436;2022-10-18T01:50:45;9.17;;;7.07;;
5195;SDS011;2617;51.006;12.436;2022-10-18T01:55:50;11.27;;;6.37;;
5195;SDS011;2617;51.006;12.436;2022-10-18T02:00:51;7.13;;;5.50;;
5195;SDS011;2617;51.006;12.436;2022-10-18T02:05:56;7.37;;;6.53;;
5195;SDS011;2617;51.006;12.436;2022-10-18T02:11:01;8.97;;;6.13;;
5195;SDS011;2617;51.006;12.436;2022-10-18T02:16:12;7.80;;;6.12;;
5195;SDS011;2617;51.006;12.436;2022-10-18T02:21:17;7.62;;;6.25;;
5195;SDS011;2617;51.006;12.436;2022-10-18T02:26:20;7.57;;;5.70;;
5195;SDS011;2617;51.006;12.436;2022-10-18T02:31:30;10.90;;;7.20;;
5195;SDS011;2617;51.006;12.436;2022-10-18T02:36:38;9.63;;;7.00;;
5195;SDS011;2617;51.006;12.436;2022-10-18T02:41:41;9.60;;;6.67;;
5195;SDS011;2617;51.006;12.436;2022-10-18T02:46:44;10.40;;;6.20;;
5195;SDS011;2617;51.006;12.436;2022-10-18T02:51:46;10.27;;;6.60;;
5195;SDS011;2617;51.006;12.436;2022-10-18T02:56:49;15.27;;;7.32;;
5195;SDS011;2617;51.006;12.436;2022-10-18T03:01:52;11.07;;;6.50;;
5195;SDS011;2617;51.006;12.436;2022-10-18T03:06:54;13.57;;;6.80;;
5195;SDS011;2617;51.006;12.436;2022-10-18T03:11:57;11.20;;;6.70;;
5195;SDS011;2617;51.006;12.436;2022-10-18T03:16:59;10.77;;;7.57;;
5195;SDS011;2617;51.006;12.436;2022-10-18T03:22:02;9.60;;;6.45;;
5195;SDS011;2617;51.006;12.436;2022-10-18T03:27:05;10.43;;;7.00;;
5195;SDS011;2617;51.006;12.436;2022-10-18T03:32:08;6.90;;;6.00;;
5195;SDS011;2617;51.006;12.436;2022-10-18T03:37:10;16.15;;;7.07;;
5195;SDS011;2617;51.006;12.436;2022-10-18T03:42:12;8.13;;;6.60;;
5195;SDS011;2617;51.006;12.436;2022-10-18T03:47:15;8.10;;;6.60;;
5195;SDS011;2617;51.006;12.436;2022-10-18T03:52:17;8.93;;;6.57;;
5195;SDS011;2617;51.006;12.436;2022-10-18T03:57:20;22.53;;;8.10;;
5195;SDS011;2617;51.006;12.436;2022-10-18T04:02:23;9.30;;;7.00;;
5195;SDS011;2617;51.006;12.436;2022-10-18T04:07:25;8.87;;;6.73;;
5195;SDS011;2617;51.006;12.436;2022-10-18T04:12:28;9.30;;;6.40;;
5195;SDS011;2617;51.006;12.436;2022-10-18T04:17:30;11.60;;;7.13;;
5195;SDS011;2617;51.006;12.436;2022-10-18T04:22:33;13.00;;;7.20;;
5195;SDS011;2617;51.006;12.436;2022-10-18T04:27:36;10.16;;;7.20;;
5195;SDS011;2617;51.006;12.436;2022-10-18T04:32:40;9.57;;;7.80;;
5195;SDS011;2617;51.006;12.436;2022-10-18T04:37:42;11.10;;;8.00;;
5195;SDS011;2617;51.006;12.436;2022-10-18T04:42:44;9.70;;;7.60;;
5195;SDS011;2617;51.006;12.436;2022-10-18T04:47:47;10.03;;;7.47;;
5195;SDS011;2617;51.006;12.436;2022-10-18T04:52:50;14.60;;;7.90;;
5195;SDS011;2617;51.006;12.436;2022-10-18T04:57:52;10.60;;;7.10;;
5195;SDS011;2617;51.006;12.436;2022-10-18T05:02:56;10.40;;;7.50;;
5195;SDS011;2617;51.006;12.436;2022-10-18T05:07:58;11.30;;;7.57;;
5195;SDS011;2617;51.006;12.436;2022-10-18T05:13:01;12.33;;;7.63;;
5195;SDS011;2617;51.006;12.436;2022-10-18T05:18:03;8.85;;;7.12;;
5195;SDS011;2617;51.006;12.436;2022-10-18T05:23:05;16.57;;;7.10;;
5195;SDS011;2617;51.006;12.436;2022-10-18T05:28:08;11.37;;;7.43;;
5195;SDS011;2617;51.006;12.436;2022-10-18T05:33:10;12.43;;;7.90;;
5195;SDS011;2617;51.006;12.436;2022-10-18T05:38:13;9.73;;;7.03;;
5195;SDS011;2617;51.006;12.436;2022-10-18T05:43:17;12.70;;;7.30;;
5195;SDS011;2617;51.006;12.436;2022-10-18T05:48:20;13.83;;;8.10;;
5195;SDS011;2617;51.006;12.436;2022-10-18T05:53:22;10.93;;;8.07;;
5195;SDS011;2617;51.006;12.436;2022-10-18T05:58:25;14.60;;;8.10;;
5195;SDS011;2617;51.006;12.436;2022-10-18T06:03:28;15.30;;;7.20;;
5195;SDS011;2617;51.006;12.436;2022-10-18T06:08:31;14.23;;;7.63;;
5195;SDS011;2617;51.006;12.436;2022-10-18T06:13:38;11.87;;;7.90;;
5195;SDS011;2617;51.006;12.436;2022-10-18T06:18:39;13.00;;;8.07;;
5195;SDS011;2617;51.006;12.436;2022-10-18T06:23:42;12.90;;;8.50;;
5195;SDS011;2617;51.006;12.436;2022-10-18T06:28:44;14.03;;;8.10;;
5195;SDS011;2617;51.006;12.436;2022-10-18T06:33:46;13.53;;;7.77;;
5195;SDS011;2617;51.006;12.436;2022-10-18T06:38:49;11.50;;;8.00;;
5195;SDS011;2617;51.006;12.436;2022-10-18T06:43:52;16.00;;;8.40;;
5195;SDS011;2617;51.006;12.436;2022-10-18T06:48:54;14.30;;;9.43;;
5195;SDS011;2617;51.006;12.436;2022-10-18T06:53:56;16.10;;;9.23;;
5195;SDS011;2617;51.006;12.436;2022-10-18T06:59:00;14.23;;;9.50;;
5195;SDS011;2617;51.006;12.436;2022-10-18T07:04:03;12.47;;;8.90;;
5195;SDS011;2617;51.006;12.436;2022-10-18T07:09:05;14.30;;;9.73;;
5195;SDS011;2617;51.006;12.436;2022-10-18T07:14:09;16.27;;;10.23;;
5195;SDS011;2617;51.006;12.436;2022-10-18T07:19:12;24.53;;;11.17;;
5195;SDS011;2617;51.006;12.436;2022-10-18T07:24:15;18.07;;;10.70;;
5195;SDS011;2617;51.006;12.436;2022-10-18T07:29:18;15.03;;;10.53;;
5195;SDS011;2617;51.006;12.436;2022-10-18T07:34:21;14.53;;;9.77;;
5195;SDS011;2617;51.006;12.436;2022-10-18T07:39:24;15.50;;;9.90;;
5195;SDS011;2617;51.006;12.436;2022-10-18T07:44:27;16.43;;;11.13;;
5195;SDS011;2617;51.006;12.436;2022-10-18T07:49:29;18.13;;;11.20;;
5195;SDS011;2617;51.006;12.436;2022-10-18T07:54:32;20.20;;;10.40;;
5195;SDS011;2617;51.006;12.436;2022-10-18T07:59:34;28.43;;;9.27;;
5195;SDS011;2617;51.006;12.436;2022-10-18T08:04:37;12.87;;;9.37;;
5195;SDS011;2617;51.006;12.436;2022-10-18T08:09:40;15.30;;;10.47;;
5195;SDS011;2617;51.006;12.436;2022-10-18T08:14:42;15.53;;;10.40;;
5195;SDS011;2617;51.006;12.436;2022-10-18T08:19:46;14.90;;;10.17;;
5195;SDS011;2617;51.006;12.436;2022-10-18T08:24:49;14.07;;;9.37;;
5195;SDS011;2617;51.006;12.436;2022-10-18T08:29:52;13.90;;;9.80;;
5195;SDS011;2617;51.006;12.436;2022-10-18T08:34:54;13.40;;;10.73;;
5195;SDS011;2617;51.006;12.436;2022-10-18T08:39:57;14.98;;;9.50;;
5195;SDS011;2617;51.006;12.436;2022-10-18T08:45:02;15.73;;;10.00;;
5195;SDS011;2617;51.006;12.436;2022-10-18T08:50:05;19.10;;;11.20;;
5195;SDS011;2617;51.006;12.436;2022-10-18T08:55:13;16.00;;;11.50;;
5195;SDS011;2617;51.006;12.436;2022-10-18T09:00:18;18.33;;;12.23;;
5195;SDS011;2617;51.006;12.436;2022-10-18T09:05:24;28.20;;;15.80;;
5195;SDS011;2617;51.006;12.436;2022-10-18T09:10:32;17.63;;;12.30;;
5195;SDS011;2617;51.006;12.436;2022-10-18T09:15:57;9.77;;;6.67;;
5195;SDS011;2617;51.006;12.436;2022-10-18T09:21:08;19.70;;;15.20;;
5195;SDS011;2617;51.006;12.436;2022-10-18T09:26:43;12.00;;;9.50;;
5195;SDS011;2617;51.006;12.436;2022-10-18T09:31:55;15.75;;;14.38;;
5195;SDS011;2617;51.006;12.436;2022-10-18T09:37:19;9.05;;;7.45;;
5195;SDS011;2617;51.006;12.436;2022-10-18T09:42:24;10.40;;;9.30;;
5195;SDS011;2617;51.006;12.436;2022-10-18T09:47:41;5.93;;;5.32;;
5195;SDS011;2617;51.006;12.436;2022-10-18T09:52:51;5.43;;;4.40;;
5195;SDS011;2617;51.006;12.436;2022-10-18T09:57:58;3.00;;;2.77;;
5195;SDS011;2617;51.006;12.436;2022-10-18T10:03:00;3.93;;;3.57;;
5195;SDS011;2617;51.006;12.436;2022-10-18T10:08:03;3.70;;;3.40;;
5195;SDS011;2617;51.006;12.436;2022-10-18T10:13:13;3.00;;;2.57;;
5195;SDS011;2617;51.006;12.436;2022-10-18T10:18:19;2.90;;;2.70;;
5195;SDS011;2617;51.006;12.436;2022-10-18T10:23:26;3.13;;;2.93;;
5195;SDS011;2617;51.006;12.436;2022-10-18T10:28:29;3.50;;;3.23;;
5195;SDS011;2617;51.006;12.436;2022-10-18T10:33:34;1.10;;;1.10;;
5195;SDS011;2617;51.006;12.436;2022-10-18T10:38:36;0.90;;;0.90;;
5195;SDS011;2617;51.006;12.436;2022-10-18T10:43:39;2.47;;;1.57;;
5195;SDS011;2617;51.006;12.436;2022-10-18T10:48:47;1.45;;;1.35;;
5195;SDS011;2617;51.006;12.436;2022-10-18T10:53:59;6.03;;;4.57;;
5195;SDS011;2617;51.006;12.436;2022-10-18T10:59:19;3.87;;;1.87;;
5195;SDS011;2617;51.006;12.436;2022-10-18T11:04:23;5.77;;;2.20;;
5195;SDS011;2617;51.006;12.436;2022-10-18T11:14:50;5.80;;;1.73;;
5195;SDS011;2617;51.006;12.436;2022-10-18T11:19:58;2.60;;;1.20;;
5195;SDS011;2617;51.006;12.436;2022-10-18T11:25:01;2.00;;;1.10;;
5195;SDS011;2617;51.006;12.436;2022-10-18T11:30:23;2.47;;;1.67;;
5195;SDS011;2617;51.006;12.436;2022-10-18T11:35:31;1.30;;;1.20;;
5195;SDS011;2617;51.006;12.436;2022-10-18T11:41:05;6.60;;;2.80;;
5195;SDS011;2617;51.006;12.436;2022-10-18T11:46:27;5.03;;;3.63;;
5195;SDS011;2617;51.006;12.436;2022-10-18T11:51:56;1.90;;;1.80;;
5195;SDS011;2617;51.006;12.436;2022-10-18T12:02:53;1.73;;;1.67;;
5195;SDS011;2617;51.006;12.436;2022-10-18T12:08:03;2.75;;;2.33;;
5195;SDS011;2617;51.006;12.436;2022-10-18T12:13:06;9.13;;;8.20;;
5195;SDS011;2617;51.006;12.436;2022-10-18T12:18:10;5.00;;;4.60;;
5195;SDS011;2617;51.006;12.436;2022-10-18T12:28:43;1.93;;;1.83;;
5195;SDS011;2617;51.006;12.436;2022-10-18T12:34:14;1.93;;;1.83;;
5195;SDS011;2617;51.006;12.436;2022-10-18T12:39:25;7.93;;;1.70;;
5195;SDS011;2617;51.006;12.436;2022-10-18T12:44:29;2.70;;;1.70;;
5195;SDS011;2617;51.006;12.436;2022-10-18T12:49:33;1.40;;;1.30;;
5195;SDS011;2617;51.006;12.436;2022-10-18T12:54:37;3.27;;;1.87;;
5195;SDS011;2617;51.006;12.436;2022-10-18T12:59:39;5.23;;;4.20;;
5195;SDS011;2617;51.006;12.436;2022-10-18T13:04:41;1.70;;;1.60;;
5195;SDS011;2617;51.006;12.436;2022-10-18T13:20:29;2.17;;;1.97;;
5195;SDS011;2617;51.006;12.436;2022-10-18T13:25:45;4.50;;;4.10;;
5195;SDS011;2617;51.006;12.436;2022-10-18T13:31:10;1.90;;;1.80;;
5195;SDS011;2617;51.006;12.436;2022-10-18T13:36:25;2.05;;;1.95;;
5195;SDS011;2617;51.006;12.436;2022-10-18T13:41:28;1.83;;;1.73;;
5195;SDS011;2617;51.006;12.436;2022-10-18T13:57:56;5.73;;;4.33;;
5195;SDS011;2617;51.006;12.436;2022-10-18T14:09:00;3.62;;;3.10;;
5195;SDS011;2617;51.006;12.436;2022-10-18T14:14:12;2.80;;;2.60;;
5195;SDS011;2617;51.006;12.436;2022-10-18T14:19:33;4.95;;;3.53;;
5195;SDS011;2617;51.006;12.436;2022-10-18T14:24:42;8.00;;;4.23;;
5195;SDS011;2617;51.006;12.436;2022-10-18T14:29:46;6.13;;;3.97;;
5195;SDS011;2617;51.006;12.436;2022-10-18T14:34:48;3.47;;;3.03;;
5195;SDS011;2617;51.006;12.436;2022-10-18T14:39:51;4.13;;;3.83;;
5195;SDS011;2617;51.006;12.436;2022-10-18T14:44:53;3.40;;;3.20;;
5195;SDS011;2617;51.006;12.436;2022-10-18T14:49:56;6.23;;;3.10;;
5195;SDS011;2617;51.006;12.436;2022-10-18T14:54:58;4.23;;;3.87;;
5195;SDS011;2617;51.006;12.436;2022-10-18T15:00:03;3.90;;;3.60;;
5195;SDS011;2617;51.006;12.436;2022-10-18T15:05:09;4.77;;;4.30;;
5195;SDS011;2617;51.006;12.436;2022-10-18T15:10:23;5.13;;;4.73;;
5195;SDS011;2617;51.006;12.436;2022-10-18T15:15:26;3.12;;;2.92;;
5195;SDS011;2617;51.006;12.436;2022-10-18T15:20:28;1.90;;;1.80;;
5195;SDS011;2617;51.006;12.436;2022-10-18T15:25:30;2.13;;;2.03;;
5195;SDS011;2617;51.006;12.436;2022-10-18T15:30:37;2.20;;;2.10;;
5195;SDS011;2617;51.006;12.436;2022-10-18T15:35:38;3.60;;;2.30;;
5195;SDS011;2617;51.006;12.436;2022-10-18T15:40:41;2.60;;;2.40;;
5195;SDS011;2617;51.006;12.436;2022-10-18T15:45:45;8.10;;;4.70;;
5195;SDS011;2617;51.006;12.436;2022-10-18T15:50:49;5.37;;;4.33;;
5195;SDS011;2617;51.006;12.436;2022-10-18T15:55:52;4.90;;;3.67;;
5195;SDS011;2617;51.006;12.436;2022-10-18T16:01:02;3.53;;;3.23;;
5195;SDS011;2617;51.006;12.436;2022-10-18T16:06:05;2.50;;;2.30;;
5195;SDS011;2617;51.006;12.436;2022-10-18T16:11:10;3.35;;;2.60;;
5195;SDS011;2617;51.006;12.436;2022-10-18T16:16:25;5.18;;;3.95;;
5195;SDS011;2617;51.006;12.436;2022-10-18T16:21:28;7.40;;;5.13;;
5195;SDS011;2617;51.006;12.436;2022-10-18T16:26:32;6.20;;;4.77;;
5195;SDS011;2617;51.006;12.436;2022-10-18T16:31:34;4.35;;;3.95;;
5195;SDS011;2617;51.006;12.436;2022-10-18T16:36:36;6.00;;;5.13;;
5195;SDS011;2617;51.006;12.436;2022-10-18T16:41:40;5.53;;;5.03;;
5195;SDS011;2617;51.006;12.436;2022-10-18T16:46:42;9.80;;;7.83;;
5195;SDS011;2617;51.006;12.436;2022-10-18T16:51:44;14.10;;;10.27;;
5195;SDS011;2617;51.006;12.436;2022-10-18T16:56:48;7.60;;;6.80;;
5195;SDS011;2617;51.006;12.436;2022-10-18T17:01:50;7.20;;;5.80;;
5195;SDS011;2617;51.006;12.436;2022-10-18T17:06:52;8.73;;;4.97;;
5195;SDS011;2617;51.006;12.436;2022-10-18T17:11:55;7.20;;;5.77;;
5195;SDS011;2617;51.006;12.436;2022-10-18T17:16:57;6.10;;;5.20;;
5195;SDS011;2617;51.006;12.436;2022-10-18T17:22:00;9.80;;;4.90;;
5195;SDS011;2617;51.006;12.436;2022-10-18T17:27:03;8.40;;;7.23;;
5195;SDS011;2617;51.006;12.436;2022-10-18T17:32:06;11.33;;;8.57;;
5195;SDS011;2617;51.006;12.436;2022-10-18T17:37:08;9.97;;;7.63;;
5195;SDS011;2617;51.006;12.436;2022-10-18T17:42:11;8.07;;;6.65;;
5195;SDS011;2617;51.006;12.436;2022-10-18T17:47:13;8.10;;;7.30;;
5195;SDS011;2617;51.006;12.436;2022-10-18T17:52:17;15.23;;;10.53;;
5195;SDS011;2617;51.006;12.436;2022-10-18T17:57:19;7.40;;;5.80;;
5195;SDS011;2617;51.006;12.436;2022-10-18T18:02:22;9.30;;;7.10;;
5195;SDS011;2617;51.006;12.436;2022-10-18T18:07:25;15.07;;;7.30;;
5195;SDS011;2617;51.006;12.436;2022-10-18T18:12:27;12.43;;;9.30;;
5195;SDS011;2617;51.006;12.436;2022-10-18T18:17:30;11.97;;;7.80;;
5195;SDS011;2617;51.006;12.436;2022-10-18T18:22:33;14.63;;;8.20;;
5195;SDS011;2617;51.006;12.436;2022-10-18T18:27:35;12.50;;;8.23;;
5195;SDS011;2617;51.006;12.436;2022-10-18T18:32:38;16.47;;;7.97;;
5195;SDS011;2617;51.006;12.436;2022-10-18T18:37:40;15.80;;;8.63;;
5195;SDS011;2617;51.006;12.436;2022-10-18T18:42:43;10.47;;;6.37;;
5195;SDS011;2617;51.006;12.436;2022-10-18T18:47:45;7.23;;;5.73;;
5195;SDS011;2617;51.006;12.436;2022-10-18T18:52:49;9.98;;;6.53;;
5195;SDS011;2617;51.006;12.436;2022-10-18T18:57:52;7.90;;;5.60;;
5195;SDS011;2617;51.006;12.436;2022-10-18T19:02:54;62.90;;;48.47;;
5195;SDS011;2617;51.006;12.436;2022-10-18T19:07:58;61.90;;;45.00;;
5195;SDS011;2617;51.006;12.436;2022-10-18T19:13:00;11.27;;;9.90;;
5195;SDS011;2617;51.006;12.436;2022-10-18T19:18:02;8.30;;;6.20;;
5195;SDS011;2617;51.006;12.436;2022-10-18T19:23:05;12.27;;;7.63;;
5195;SDS011;2617;51.006;12.436;2022-10-18T19:28:07;12.63;;;6.70;;
5195;SDS011;2617;51.006;12.436;2022-10-18T19:33:10;12.57;;;9.07;;
5195;SDS011;2617;51.006;12.436;2022-10-18T19:38:13;13.30;;;8.60;;
5195;SDS011;2617;51.006;12.436;2022-10-18T19:43:15;14.07;;;7.87;;
5195;SDS011;2617;51.006;12.436;2022-10-18T19:48:18;19.60;;;10.13;;
5195;SDS011;2617;51.006;12.436;2022-10-18T19:53:20;14.80;;;9.80;;
5195;SDS011;2617;51.006;12.436;2022-10-18T19:58:24;11.83;;;8.20;;
5195;SDS011;2617;51.006;12.436;2022-10-18T20:03:27;17.37;;;9.67;;
5195;SDS011;2617;51.006;12.436;2022-10-18T20:08:30;19.60;;;9.20;;
5195;SDS011;2617;51.006;12.436;2022-10-18T20:13:33;17.07;;;10.10;;
5195;SDS011;2617;51.006;12.436;2022-10-18T20:18:35;18.33;;;10.67;;
5195;SDS011;2617;51.006;12.436;2022-10-18T20:23:39;15.27;;;10.25;;
5195;SDS011;2617;51.006;12.436;2022-10-18T20:28:41;22.63;;;11.03;;
5195;SDS011;2617;51.006;12.436;2022-10-18T20:33:45;14.37;;;10.50;;
5195;SDS011;2617;51.006;12.436;2022-10-18T20:38:46;20.97;;;10.73;;
5195;SDS011;2617;51.006;12.436;2022-10-18T20:43:51;17.78;;;11.30;;
5195;SDS011;2617;51.006;12.436;2022-10-18T20:48:56;16.00;;;10.40;;
5195;SDS011;2617;51.006;12.436;2022-10-18T20:53:59;19.20;;;10.60;;
5195;SDS011;2617;51.006;12.436;2022-10-18T20:59:01;24.12;;;12.05;;
5195;SDS011;2617;51.006;12.436;2022-10-18T21:04:07;21.27;;;11.50;;
5195;SDS011;2617;51.006;12.436;2022-10-18T21:09:09;20.47;;;12.03;;
5195;SDS011;2617;51.006;12.436;2022-10-18T21:14:18;20.80;;;11.87;;
5195;SDS011;2617;51.006;12.436;2022-10-18T21:19:23;22.78;;;12.84;;
5195;SDS011;2617;51.006;12.436;2022-10-18T21:24:25;21.63;;;12.80;;
5195;SDS011;2617;51.006;12.436;2022-10-18T21:29:27;21.70;;;11.90;;
5195;SDS011;2617;51.006;12.436;2022-10-18T21:34:30;19.10;;;12.13;;
5195;SDS011;2617;51.006;12.436;2022-10-18T21:39:33;21.00;;;11.77;;
5195;SDS011;2617;51.006;12.436;2022-10-18T21:44:36;22.47;;;11.67;;
5195;SDS011;2617;51.006;12.436;2022-10-18T21:49:38;18.50;;;11.60;;
5195;SDS011;2617;51.006;12.436;2022-10-18T21:54:41;22.93;;;11.07;;
5195;SDS011;2617;51.006;12.436;2022-10-18T21:59:44;22.10;;;12.43;;
5195;SDS011;2617;51.006;12.436;2022-10-18T22:04:46;23.80;;;11.50;;
5195;SDS011;2617;51.006;12.436;2022-10-18T22:09:48;20.50;;;12.10;;
5195;SDS011;2617;51.006;12.436;2022-10-18T22:14:51;23.33;;;11.48;;
5195;SDS011;2617;51.006;12.436;2022-10-18T22:19:54;19.53;;;10.60;;
5195;SDS011;2617;51.006;12.436;2022-10-18T22:24:56;19.62;;;9.88;;
5195;SDS011;2617;51.006;12.436;2022-10-18T22:29:59;19.47;;;9.60;;
5195;SDS011;2617;51.006;12.436;2022-10-18T22:35:01;20.53;;;8.93;;
5195;SDS011;2617;51.006;12.436;2022-10-18T22:40:04;13.83;;;8.43;;
5195;SDS011;2617;51.006;12.436;2022-10-18T22:45:08;14.00;;;9.07;;
5195;SDS011;2617;51.006;12.436;2022-10-18T22:50:11;13.20;;;8.00;;
5195;SDS011;2617;51.006;12.436;2022-10-18T22:55:13;14.37;;;8.27;;
5195;SDS011;2617;51.006;12.436;2022-10-18T23:00:17;20.67;;;9.65;;
5195;SDS011;2617;51.006;12.436;2022-10-18T23:05:19;14.90;;;8.43;;
5195;SDS011;2617;51.006;12.436;2022-10-18T23:10:22;15.73;;;7.80;;
5195;SDS011;2617;51.006;12.436;2022-10-18T23:15:24;38.60;;;30.83;;
5195;SDS011;2617;51.006;12.436;2022-10-18T23:20:27;26.27;;;19.52;;
5195;SDS011;2617;51.006;12.436;2022-10-18T23:25:29;12.20;;;6.10;;
5195;SDS011;2617;51.006;12.436;2022-10-18T23:30:32;9.63;;;6.47;;
5195;SDS011;2617;51.006;12.436;2022-10-18T23:35:35;13.60;;;5.00;;
5195;SDS011;2617;51.006;12.436;2022-10-18T23:40:38;12.43;;;5.30;;
5195;SDS011;2617;51.006;12.436;2022-10-18T23:45:42;7.47;;;4.87;;
5195;SDS011;2617;51.006;12.436;2022-10-18T23:50:45;19.27;;;5.80;;
5195;SDS011;2617;51.006;12.436;2022-10-18T23:55:50;10.63;;;5.60;;
